sensor_id;sensor_type;location;lat;lon;timestamp;P1;durP1;ratioP1;P2;durP2;ratioP2
66189;SDS011;52992;52.084;5.412;2024-01-15T00:00:33;8.50;;;2.37;;
66189;SDS011;52992;52.084;5.412;2024-01-15T00:03:01;7.47;;;2.50;;
66189;SDS011;52992;52.084;5.412;2024-01-15T00:05:28;7.23;;;1.70;;
66189;SDS011;52992;52.084;5.412;2024-01-15T00:07:55;2.47;;;1.53;;
66189;SDS011;52992;52.084;5.412;2024-01-15T00:10:23;8.30;;;1.87;;
66189;SDS011;52992;52.084;5.412;2024-01-15T00:12:50;8.73;;;2.37;;
66189;SDS011;52992;52.084;5.412;2024-01-15T00:15:17;7.17;;;2.13;;
66189;SDS011;52992;52.084;5.412;2024-01-15T00:17:44;6.87;;;1.70;;
66189;SDS011;52992;52.084;5.412;2024-01-15T00:20:11;5.80;;;1.50;;
66189;SDS011;52992;52.084;5.412;2024-01-15T00:22:38;8.43;;;1.80;;
66189;SDS011;52992;52.084;5.412;2024-01-15T00:25:05;9.83;;;1.80;;
66189;SDS011;52992;52.084;5.412;2024-01-15T00:27:33;9.87;;;2.27;;
66189;SDS011;52992;52.084;5.412;2024-01-15T00:30:00;7.77;;;1.70;;
66189;SDS011;52992;52.084;5.412;2024-01-15T00:32:27;7.37;;;1.47;;
66189;SDS011;52992;52.084;5.412;2024-01-15T00:34:54;6.37;;;1.70;;
66189;SDS011;52992;52.084;5.412;2024-01-15T00:37:22;5.07;;;2.60;;
66189;SDS011;52992;52.084;5.412;2024-01-15T00:39:49;7.07;;;1.53;;
66189;SDS011;52992;52.084;5.412;2024-01-15T00:42:16;11.60;;;2.07;;
66189;SDS011;52992;52.084;5.412;2024-01-15T00:44:43;8.13;;;2.00;;
66189;SDS011;52992;52.084;5.412;2024-01-15T00:47:10;8.83;;;2.10;;
66189;SDS011;52992;52.084;5.412;2024-01-15T00:49:36;6.50;;;1.63;;
66189;SDS011;52992;52.084;5.412;2024-01-15T00:52:04;2.23;;;1.33;;
66189;SDS011;52992;52.084;5.412;2024-01-15T00:54:31;2.73;;;1.30;;
66189;SDS011;52992;52.084;5.412;2024-01-15T00:56:58;6.40;;;1.60;;
66189;SDS011;52992;52.084;5.412;2024-01-15T00:59:25;8.80;;;1.90;;
66189;SDS011;52992;52.084;5.412;2024-01-15T01:01:52;10.37;;;2.03;;
66189;SDS011;52992;52.084;5.412;2024-01-15T01:04:19;8.57;;;1.90;;
66189;SDS011;52992;52.084;5.412;2024-01-15T01:06:46;6.63;;;1.90;;
66189;SDS011;52992;52.084;5.412;2024-01-15T01:09:13;6.40;;;1.70;;
66189;SDS011;52992;52.084;5.412;2024-01-15T01:11:40;7.67;;;1.90;;
66189;SDS011;52992;52.084;5.412;2024-01-15T01:14:07;8.87;;;1.57;;
66189;SDS011;52992;52.084;5.412;2024-01-15T01:16:34;8.50;;;1.53;;
66189;SDS011;52992;52.084;5.412;2024-01-15T01:19:06;7.90;;;1.43;;
66189;SDS011;52992;52.084;5.412;2024-01-15T01:21:34;10.30;;;1.50;;
66189;SDS011;52992;52.084;5.412;2024-01-15T01:24:01;11.37;;;1.57;;
66189;SDS011;52992;52.084;5.412;2024-01-15T01:26:28;11.57;;;1.87;;
66189;SDS011;52992;52.084;5.412;2024-01-15T01:28:55;7.37;;;2.37;;
66189;SDS011;52992;52.084;5.412;2024-01-15T01:31:23;5.57;;;1.53;;
66189;SDS011;52992;52.084;5.412;2024-01-15T01:33:50;11.67;;;1.50;;
66189;SDS011;52992;52.084;5.412;2024-01-15T01:36:17;5.10;;;1.50;;
66189;SDS011;52992;52.084;5.412;2024-01-15T01:38:45;5.97;;;1.63;;
66189;SDS011;52992;52.084;5.412;2024-01-15T01:41:12;11.03;;;1.63;;
66189;SDS011;52992;52.084;5.412;2024-01-15T01:43:39;5.60;;;1.43;;
66189;SDS011;52992;52.084;5.412;2024-01-15T01:46:05;6.83;;;1.67;;
66189;SDS011;52992;52.084;5.412;2024-01-15T01:48:35;9.87;;;1.47;;
66189;SDS011;52992;52.084;5.412;2024-01-15T01:51:03;10.37;;;1.90;;
66189;SDS011;52992;52.084;5.412;2024-01-15T01:53:31;14.17;;;1.80;;
66189;SDS011;52992;52.084;5.412;2024-01-15T01:56:00;6.23;;;1.87;;
66189;SDS011;52992;52.084;5.412;2024-01-15T01:58:29;10.17;;;1.93;;
66189;SDS011;52992;52.084;5.412;2024-01-15T02:00:57;11.67;;;1.73;;
66189;SDS011;52992;52.084;5.412;2024-01-15T02:03:30;5.70;;;1.30;;
66189;SDS011;52992;52.084;5.412;2024-01-15T02:05:57;12.13;;;1.83;;
66189;SDS011;52992;52.084;5.412;2024-01-15T02:08:26;14.10;;;2.37;;
66189;SDS011;52992;52.084;5.412;2024-01-15T02:10:53;12.60;;;2.20;;
66189;SDS011;52992;52.084;5.412;2024-01-15T02:13:20;10.27;;;2.10;;
66189;SDS011;52992;52.084;5.412;2024-01-15T02:15:47;12.60;;;2.37;;
66189;SDS011;52992;52.084;5.412;2024-01-15T02:18:14;6.57;;;1.80;;
66189;SDS011;52992;52.084;5.412;2024-01-15T02:20:41;9.33;;;1.60;;
66189;SDS011;52992;52.084;5.412;2024-01-15T02:23:11;12.37;;;1.93;;
66189;SDS011;52992;52.084;5.412;2024-01-15T02:25:42;8.17;;;1.47;;
66189;SDS011;52992;52.084;5.412;2024-01-15T02:28:14;12.00;;;2.00;;
66189;SDS011;52992;52.084;5.412;2024-01-15T02:30:42;6.00;;;1.27;;
66189;SDS011;52992;52.084;5.412;2024-01-15T02:33:11;18.63;;;2.03;;
66189;SDS011;52992;52.084;5.412;2024-01-15T02:35:39;8.07;;;1.37;;
66189;SDS011;52992;52.084;5.412;2024-01-15T02:38:06;6.27;;;1.30;;
66189;SDS011;52992;52.084;5.412;2024-01-15T02:40:34;4.67;;;0.90;;
66189;SDS011;52992;52.084;5.412;2024-01-15T02:43:01;4.70;;;0.53;;
66189;SDS011;52992;52.084;5.412;2024-01-15T02:45:28;1.77;;;0.60;;
66189;SDS011;52992;52.084;5.412;2024-01-15T02:47:56;3.37;;;0.70;;
66189;SDS011;52992;52.084;5.412;2024-01-15T02:50:23;4.13;;;1.27;;
66189;SDS011;52992;52.084;5.412;2024-01-15T02:52:50;4.67;;;1.00;;
66189;SDS011;52992;52.084;5.412;2024-01-15T02:55:17;2.37;;;0.37;;
66189;SDS011;52992;52.084;5.412;2024-01-15T02:57:44;2.00;;;0.97;;
66189;SDS011;52992;52.084;5.412;2024-01-15T03:00:12;3.47;;;0.60;;
66189;SDS011;52992;52.084;5.412;2024-01-15T03:02:39;3.60;;;0.80;;
66189;SDS011;52992;52.084;5.412;2024-01-15T03:05:11;2.33;;;1.03;;
66189;SDS011;52992;52.084;5.412;2024-01-15T03:07:38;6.03;;;0.80;;
66189;SDS011;52992;52.084;5.412;2024-01-15T03:10:06;3.87;;;0.77;;
66189;SDS011;52992;52.084;5.412;2024-01-15T03:12:33;1.77;;;0.67;;
66189;SDS011;52992;52.084;5.412;2024-01-15T03:15:00;3.50;;;1.07;;
66189;SDS011;52992;52.084;5.412;2024-01-15T03:17:27;3.07;;;0.70;;
66189;SDS011;52992;52.084;5.412;2024-01-15T03:19:54;2.27;;;1.07;;
66189;SDS011;52992;52.084;5.412;2024-01-15T03:22:21;8.20;;;1.33;;
66189;SDS011;52992;52.084;5.412;2024-01-15T03:24:48;5.10;;;0.87;;
66189;SDS011;52992;52.084;5.412;2024-01-15T03:27:15;6.87;;;0.77;;
66189;SDS011;52992;52.084;5.412;2024-01-15T03:29:43;7.63;;;1.10;;
66189;SDS011;52992;52.084;5.412;2024-01-15T03:32:10;6.20;;;1.40;;
66189;SDS011;52992;52.084;5.412;2024-01-15T03:34:37;5.83;;;1.00;;
66189;SDS011;52992;52.084;5.412;2024-01-15T03:37:04;2.93;;;0.73;;
66189;SDS011;52992;52.084;5.412;2024-01-15T03:39:32;1.90;;;0.90;;
66189;SDS011;52992;52.084;5.412;2024-01-15T03:41:59;8.23;;;1.13;;
66189;SDS011;52992;52.084;5.412;2024-01-15T03:44:26;3.87;;;0.97;;
66189;SDS011;52992;52.084;5.412;2024-01-15T03:46:53;8.20;;;1.00;;
66189;SDS011;52992;52.084;5.412;2024-01-15T03:49:20;3.83;;;0.80;;
66189;SDS011;52992;52.084;5.412;2024-01-15T03:51:47;8.50;;;1.13;;
66189;SDS011;52992;52.084;5.412;2024-01-15T03:54:14;10.07;;;1.17;;
66189;SDS011;52992;52.084;5.412;2024-01-15T03:56:45;6.03;;;0.97;;
66189;SDS011;52992;52.084;5.412;2024-01-15T03:59:12;5.30;;;0.80;;
66189;SDS011;52992;52.084;5.412;2024-01-15T04:01:39;6.60;;;1.27;;
66189;SDS011;52992;52.084;5.412;2024-01-15T04:04:05;6.90;;;0.83;;
66189;SDS011;52992;52.084;5.412;2024-01-15T04:06:32;2.97;;;0.90;;
66189;SDS011;52992;52.084;5.412;2024-01-15T04:08:59;2.77;;;1.13;;
66189;SDS011;52992;52.084;5.412;2024-01-15T04:11:27;3.53;;;1.43;;
66189;SDS011;52992;52.084;5.412;2024-01-15T04:13:54;3.80;;;0.93;;
66189;SDS011;52992;52.084;5.412;2024-01-15T04:16:21;5.53;;;0.97;;
66189;SDS011;52992;52.084;5.412;2024-01-15T04:18:48;7.43;;;1.27;;
66189;SDS011;52992;52.084;5.412;2024-01-15T04:21:16;2.70;;;1.03;;
66189;SDS011;52992;52.084;5.412;2024-01-15T04:23:44;2.90;;;1.10;;
66189;SDS011;52992;52.084;5.412;2024-01-15T04:26:10;5.00;;;0.80;;
66189;SDS011;52992;52.084;5.412;2024-01-15T04:28:37;8.63;;;1.27;;
66189;SDS011;52992;52.084;5.412;2024-01-15T04:31:04;4.37;;;0.83;;
66189;SDS011;52992;52.084;5.412;2024-01-15T04:33:31;4.73;;;1.30;;
66189;SDS011;52992;52.084;5.412;2024-01-15T04:36:03;3.30;;;1.03;;
66189;SDS011;52992;52.084;5.412;2024-01-15T04:38:31;7.07;;;1.53;;
66189;SDS011;52992;52.084;5.412;2024-01-15T04:40:59;2.87;;;1.27;;
66189;SDS011;52992;52.084;5.412;2024-01-15T04:43:26;7.60;;;0.93;;
66189;SDS011;52992;52.084;5.412;2024-01-15T04:45:53;6.47;;;1.20;;
66189;SDS011;52992;52.084;5.412;2024-01-15T04:48:20;3.37;;;1.20;;
66189;SDS011;52992;52.084;5.412;2024-01-15T04:50:49;6.90;;;1.47;;
66189;SDS011;52992;52.084;5.412;2024-01-15T04:53:17;3.67;;;0.80;;
66189;SDS011;52992;52.084;5.412;2024-01-15T04:55:44;5.13;;;1.40;;
66189;SDS011;52992;52.084;5.412;2024-01-15T04:58:11;5.43;;;0.93;;
66189;SDS011;52992;52.084;5.412;2024-01-15T05:00:38;3.53;;;1.37;;
66189;SDS011;52992;52.084;5.412;2024-01-15T05:03:05;6.63;;;1.13;;
66189;SDS011;52992;52.084;5.412;2024-01-15T05:05:33;8.73;;;1.30;;
66189;SDS011;52992;52.084;5.412;2024-01-15T05:08:00;3.03;;;1.00;;
66189;SDS011;52992;52.084;5.412;2024-01-15T05:10:27;6.10;;;1.40;;
66189;SDS011;52992;52.084;5.412;2024-01-15T05:12:54;13.77;;;1.50;;
66189;SDS011;52992;52.084;5.412;2024-01-15T05:15:21;7.43;;;1.37;;
66189;SDS011;52992;52.084;5.412;2024-01-15T05:17:48;5.60;;;0.93;;
66189;SDS011;52992;52.084;5.412;2024-01-15T05:20:15;5.13;;;1.10;;
66189;SDS011;52992;52.084;5.412;2024-01-15T05:22:44;7.33;;;1.37;;
66189;SDS011;52992;52.084;5.412;2024-01-15T05:25:11;9.00;;;1.80;;
66189;SDS011;52992;52.084;5.412;2024-01-15T05:27:38;2.07;;;0.80;;
66189;SDS011;52992;52.084;5.412;2024-01-15T05:30:05;3.23;;;0.83;;
66189;SDS011;52992;52.084;5.412;2024-01-15T05:32:32;6.87;;;2.43;;
66189;SDS011;52992;52.084;5.412;2024-01-15T05:34:59;7.77;;;2.70;;
66189;SDS011;52992;52.084;5.412;2024-01-15T05:37:26;9.70;;;2.20;;
66189;SDS011;52992;52.084;5.412;2024-01-15T05:39:53;5.50;;;2.13;;
66189;SDS011;52992;52.084;5.412;2024-01-15T05:42:20;5.87;;;2.10;;
66189;SDS011;52992;52.084;5.412;2024-01-15T05:44:47;3.63;;;1.30;;
66189;SDS011;52992;52.084;5.412;2024-01-15T05:47:14;5.50;;;1.23;;
66189;SDS011;52992;52.084;5.412;2024-01-15T05:49:41;7.23;;;1.50;;
66189;SDS011;52992;52.084;5.412;2024-01-15T05:52:08;6.80;;;1.37;;
66189;SDS011;52992;52.084;5.412;2024-01-15T05:54:35;5.13;;;0.93;;
66189;SDS011;52992;52.084;5.412;2024-01-15T05:57:02;6.70;;;1.30;;
66189;SDS011;52992;52.084;5.412;2024-01-15T05:59:29;6.73;;;1.20;;
66189;SDS011;52992;52.084;5.412;2024-01-15T06:01:58;2.33;;;1.10;;
66189;SDS011;52992;52.084;5.412;2024-01-15T06:04:25;1.63;;;0.97;;
66189;SDS011;52992;52.084;5.412;2024-01-15T06:06:52;7.43;;;1.83;;
66189;SDS011;52992;52.084;5.412;2024-01-15T06:09:19;5.23;;;1.80;;
66189;SDS011;52992;52.084;5.412;2024-01-15T06:11:46;3.50;;;1.10;;
66189;SDS011;52992;52.084;5.412;2024-01-15T06:14:13;3.43;;;1.30;;
66189;SDS011;52992;52.084;5.412;2024-01-15T06:16:40;4.73;;;2.20;;
66189;SDS011;52992;52.084;5.412;2024-01-15T06:19:07;5.57;;;2.30;;
66189;SDS011;52992;52.084;5.412;2024-01-15T06:21:34;9.13;;;3.80;;
66189;SDS011;52992;52.084;5.412;2024-01-15T06:24:01;18.67;;;4.10;;
66189;SDS011;52992;52.084;5.412;2024-01-15T06:26:28;7.13;;;3.50;;
66189;SDS011;52992;52.084;5.412;2024-01-15T06:28:55;5.27;;;2.73;;
66189;SDS011;52992;52.084;5.412;2024-01-15T06:31:22;4.53;;;2.07;;
66189;SDS011;52992;52.084;5.412;2024-01-15T06:33:49;4.17;;;1.80;;
66189;SDS011;52992;52.084;5.412;2024-01-15T06:36:16;5.33;;;1.60;;
66189;SDS011;52992;52.084;5.412;2024-01-15T06:38:43;1.80;;;1.40;;
66189;SDS011;52992;52.084;5.412;2024-01-15T06:41:11;6.67;;;2.47;;
66189;SDS011;52992;52.084;5.412;2024-01-15T06:43:37;3.00;;;1.80;;
66189;SDS011;52992;52.084;5.412;2024-01-15T06:46:04;4.83;;;2.30;;
66189;SDS011;52992;52.084;5.412;2024-01-15T06:48:34;6.23;;;2.70;;
66189;SDS011;52992;52.084;5.412;2024-01-15T06:51:01;3.50;;;2.03;;
66189;SDS011;52992;52.084;5.412;2024-01-15T06:53:28;3.07;;;1.83;;
66189;SDS011;52992;52.084;5.412;2024-01-15T06:55:55;3.13;;;1.97;;
66189;SDS011;52992;52.084;5.412;2024-01-15T06:58:22;3.77;;;2.33;;
66189;SDS011;52992;52.084;5.412;2024-01-15T07:00:49;3.77;;;2.20;;
66189;SDS011;52992;52.084;5.412;2024-01-15T07:03:16;4.93;;;2.20;;
66189;SDS011;52992;52.084;5.412;2024-01-15T07:05:43;4.17;;;3.00;;
66189;SDS011;52992;52.084;5.412;2024-01-15T07:08:11;6.33;;;3.13;;
66189;SDS011;52992;52.084;5.412;2024-01-15T07:10:37;5.63;;;3.97;;
66189;SDS011;52992;52.084;5.412;2024-01-15T07:13:05;4.73;;;3.10;;
66189;SDS011;52992;52.084;5.412;2024-01-15T07:15:32;3.93;;;2.83;;
66189;SDS011;52992;52.084;5.412;2024-01-15T07:17:59;6.30;;;3.07;;
66189;SDS011;52992;52.084;5.412;2024-01-15T07:20:26;29.67;;;9.17;;
66189;SDS011;52992;52.084;5.412;2024-01-15T07:22:53;9.23;;;4.50;;
66189;SDS011;52992;52.084;5.412;2024-01-15T07:25:20;5.90;;;3.40;;
66189;SDS011;52992;52.084;5.412;2024-01-15T07:27:47;19.63;;;8.17;;
66189;SDS011;52992;52.084;5.412;2024-01-15T07:30:14;14.57;;;5.53;;
66189;SDS011;52992;52.084;5.412;2024-01-15T07:32:41;14.37;;;5.83;;
66189;SDS011;52992;52.084;5.412;2024-01-15T07:35:09;8.33;;;5.07;;
66189;SDS011;52992;52.084;5.412;2024-01-15T07:37:36;7.07;;;4.00;;
66189;SDS011;52992;52.084;5.412;2024-01-15T07:40:04;12.87;;;4.50;;
66189;SDS011;52992;52.084;5.412;2024-01-15T07:42:33;4.93;;;3.80;;
66189;SDS011;52992;52.084;5.412;2024-01-15T07:45:01;8.47;;;3.67;;
66189;SDS011;52992;52.084;5.412;2024-01-15T07:47:28;4.57;;;4.00;;
66189;SDS011;52992;52.084;5.412;2024-01-15T07:49:55;5.67;;;3.30;;
66189;SDS011;52992;52.084;5.412;2024-01-15T07:52:27;8.57;;;4.17;;
66189;SDS011;52992;52.084;5.412;2024-01-15T07:54:54;8.57;;;3.40;;
66189;SDS011;52992;52.084;5.412;2024-01-15T07:57:21;9.87;;;3.40;;
66189;SDS011;52992;52.084;5.412;2024-01-15T07:59:49;7.37;;;3.30;;
66189;SDS011;52992;52.084;5.412;2024-01-15T08:02:16;7.93;;;4.20;;
66189;SDS011;52992;52.084;5.412;2024-01-15T08:04:43;7.47;;;3.97;;
66189;SDS011;52992;52.084;5.412;2024-01-15T08:07:11;8.10;;;4.87;;
66189;SDS011;52992;52.084;5.412;2024-01-15T08:09:38;14.13;;;5.03;;
66189;SDS011;52992;52.084;5.412;2024-01-15T08:12:05;9.83;;;5.33;;
66189;SDS011;52992;52.084;5.412;2024-01-15T08:14:32;10.03;;;4.93;;
66189;SDS011;52992;52.084;5.412;2024-01-15T08:16:59;10.80;;;4.30;;
66189;SDS011;52992;52.084;5.412;2024-01-15T08:19:27;8.47;;;4.00;;
66189;SDS011;52992;52.084;5.412;2024-01-15T08:21:55;8.60;;;3.90;;
66189;SDS011;52992;52.084;5.412;2024-01-15T08:24:22;7.27;;;4.37;;
66189;SDS011;52992;52.084;5.412;2024-01-15T08:26:49;8.30;;;4.63;;
66189;SDS011;52992;52.084;5.412;2024-01-15T08:29:16;10.53;;;4.50;;
66189;SDS011;52992;52.084;5.412;2024-01-15T08:31:46;9.57;;;3.83;;
66189;SDS011;52992;52.084;5.412;2024-01-15T08:34:13;12.43;;;5.37;;
66189;SDS011;52992;52.084;5.412;2024-01-15T08:36:40;9.47;;;5.10;;
66189;SDS011;52992;52.084;5.412;2024-01-15T08:39:07;10.47;;;6.07;;
66189;SDS011;52992;52.084;5.412;2024-01-15T08:41:35;9.20;;;4.00;;
66189;SDS011;52992;52.084;5.412;2024-01-15T08:44:02;12.10;;;3.83;;
66189;SDS011;52992;52.084;5.412;2024-01-15T08:46:30;8.13;;;3.97;;
66189;SDS011;52992;52.084;5.412;2024-01-15T08:48:56;10.13;;;3.60;;
66189;SDS011;52992;52.084;5.412;2024-01-15T08:51:24;10.23;;;3.60;;
66189;SDS011;52992;52.084;5.412;2024-01-15T08:53:51;9.53;;;3.97;;
66189;SDS011;52992;52.084;5.412;2024-01-15T08:56:17;13.30;;;3.70;;
66189;SDS011;52992;52.084;5.412;2024-01-15T08:58:44;9.70;;;4.17;;
66189;SDS011;52992;52.084;5.412;2024-01-15T09:01:12;11.00;;;3.33;;
66189;SDS011;52992;52.084;5.412;2024-01-15T09:03:40;8.13;;;2.60;;
66189;SDS011;52992;52.084;5.412;2024-01-15T09:06:10;8.83;;;3.53;;
66189;SDS011;52992;52.084;5.412;2024-01-15T09:08:37;10.60;;;3.67;;
66189;SDS011;52992;52.084;5.412;2024-01-15T09:11:04;16.93;;;4.67;;
66189;SDS011;52992;52.084;5.412;2024-01-15T09:13:31;16.03;;;5.97;;
66189;SDS011;52992;52.084;5.412;2024-01-15T09:15:58;9.93;;;5.07;;
66189;SDS011;52992;52.084;5.412;2024-01-15T09:18:26;12.60;;;2.70;;
66189;SDS011;52992;52.084;5.412;2024-01-15T09:20:54;8.00;;;2.13;;
66189;SDS011;52992;52.084;5.412;2024-01-15T09:23:21;5.80;;;2.37;;
66189;SDS011;52992;52.084;5.412;2024-01-15T09:25:48;3.97;;;2.37;;
66189;SDS011;52992;52.084;5.412;2024-01-15T09:28:17;6.67;;;2.60;;
66189;SDS011;52992;52.084;5.412;2024-01-15T09:30:44;8.13;;;2.70;;
66189;SDS011;52992;52.084;5.412;2024-01-15T09:33:11;5.40;;;1.90;;
66189;SDS011;52992;52.084;5.412;2024-01-15T09:35:39;2.07;;;1.73;;
66189;SDS011;52992;52.084;5.412;2024-01-15T09:38:06;5.70;;;2.13;;
66189;SDS011;52992;52.084;5.412;2024-01-15T09:40:33;3.30;;;1.83;;
66189;SDS011;52992;52.084;5.412;2024-01-15T09:43:00;5.30;;;2.30;;
66189;SDS011;52992;52.084;5.412;2024-01-15T09:45:30;5.63;;;1.63;;
66189;SDS011;52992;52.084;5.412;2024-01-15T09:47:57;6.23;;;2.03;;
66189;SDS011;52992;52.084;5.412;2024-01-15T09:50:24;2.47;;;1.60;;
66189;SDS011;52992;52.084;5.412;2024-01-15T09:52:52;5.90;;;1.60;;
66189;SDS011;52992;52.084;5.412;2024-01-15T09:55:20;5.87;;;2.07;;
66189;SDS011;52992;52.084;5.412;2024-01-15T09:57:48;5.97;;;1.90;;
66189;SDS011;52992;52.084;5.412;2024-01-15T10:00:20;7.20;;;2.20;;
66189;SDS011;52992;52.084;5.412;2024-01-15T10:02:47;6.67;;;1.90;;
66189;SDS011;52992;52.084;5.412;2024-01-15T10:05:14;8.07;;;2.00;;
66189;SDS011;52992;52.084;5.412;2024-01-15T10:07:42;6.43;;;2.03;;
66189;SDS011;52992;52.084;5.412;2024-01-15T10:10:10;10.43;;;3.00;;
66189;SDS011;52992;52.084;5.412;2024-01-15T10:12:38;6.03;;;3.17;;
66189;SDS011;52992;52.084;5.412;2024-01-15T10:15:08;4.33;;;2.70;;
66189;SDS011;52992;52.084;5.412;2024-01-15T10:17:37;8.33;;;2.90;;
66189;SDS011;52992;52.084;5.412;2024-01-15T10:20:11;5.50;;;2.73;;
66189;SDS011;52992;52.084;5.412;2024-01-15T10:22:40;6.43;;;2.67;;
66189;SDS011;52992;52.084;5.412;2024-01-15T10:25:12;9.00;;;2.80;;
66189;SDS011;52992;52.084;5.412;2024-01-15T10:27:40;8.83;;;2.80;;
66189;SDS011;52992;52.084;5.412;2024-01-15T10:30:09;10.47;;;2.47;;
66189;SDS011;52992;52.084;5.412;2024-01-15T10:32:37;4.00;;;2.17;;
66189;SDS011;52992;52.084;5.412;2024-01-15T10:35:04;11.27;;;2.93;;
66189;SDS011;52992;52.084;5.412;2024-01-15T10:37:33;12.73;;;2.23;;
66189;SDS011;52992;52.084;5.412;2024-01-15T10:40:01;12.23;;;2.30;;
66189;SDS011;52992;52.084;5.412;2024-01-15T10:42:31;7.33;;;2.43;;
66189;SDS011;52992;52.084;5.412;2024-01-15T10:44:58;15.80;;;3.50;;
66189;SDS011;52992;52.084;5.412;2024-01-15T10:47:25;11.17;;;3.90;;
66189;SDS011;52992;52.084;5.412;2024-01-15T10:49:52;5.53;;;2.30;;
66189;SDS011;52992;52.084;5.412;2024-01-15T10:52:20;9.17;;;2.17;;
66189;SDS011;52992;52.084;5.412;2024-01-15T10:54:48;21.40;;;8.17;;
66189;SDS011;52992;52.084;5.412;2024-01-15T10:57:16;8.47;;;4.33;;
66189;SDS011;52992;52.084;5.412;2024-01-15T10:59:43;11.63;;;4.53;;
66189;SDS011;52992;52.084;5.412;2024-01-15T11:02:10;9.40;;;3.13;;
66189;SDS011;52992;52.084;5.412;2024-01-15T11:04:38;14.43;;;2.97;;
66189;SDS011;52992;52.084;5.412;2024-01-15T11:07:05;5.80;;;2.50;;
66189;SDS011;52992;52.084;5.412;2024-01-15T11:09:33;8.43;;;2.37;;
66189;SDS011;52992;52.084;5.412;2024-01-15T11:12:09;6.23;;;2.37;;
66189;SDS011;52992;52.084;5.412;2024-01-15T11:14:41;8.37;;;2.53;;
66189;SDS011;52992;52.084;5.412;2024-01-15T11:17:12;6.00;;;1.97;;
66189;SDS011;52992;52.084;5.412;2024-01-15T11:24:57;8.20;;;2.67;;
66189;SDS011;52992;52.084;5.412;2024-01-15T11:27:49;7.73;;;2.90;;
66189;SDS011;52992;52.084;5.412;2024-01-15T11:30:24;7.63;;;5.03;;
66189;SDS011;52992;52.084;5.412;2024-01-15T11:32:52;7.90;;;2.77;;
66189;SDS011;52992;52.084;5.412;2024-01-15T11:35:20;5.03;;;1.70;;
66189;SDS011;52992;52.084;5.412;2024-01-15T11:40:18;2.47;;;1.43;;
66189;SDS011;52992;52.084;5.412;2024-01-15T11:42:46;5.67;;;2.23;;
66189;SDS011;52992;52.084;5.412;2024-01-15T11:45:20;5.37;;;2.30;;
66189;SDS011;52992;52.084;5.412;2024-01-15T11:50:18;4.40;;;0.97;;
66189;SDS011;52992;52.084;5.412;2024-01-15T11:52:50;1.90;;;0.53;;
66189;SDS011;52992;52.084;5.412;2024-01-15T11:55:30;2.17;;;0.70;;
66189;SDS011;52992;52.084;5.412;2024-01-15T11:58:01;2.83;;;1.00;;
66189;SDS011;52992;52.084;5.412;2024-01-15T12:00:31;4.70;;;1.83;;
66189;SDS011;52992;52.084;5.412;2024-01-15T12:02:58;3.57;;;2.10;;
66189;SDS011;52992;52.084;5.412;2024-01-15T12:05:26;8.57;;;2.57;;
66189;SDS011;52992;52.084;5.412;2024-01-15T12:07:53;2.83;;;1.27;;
66189;SDS011;52992;52.084;5.412;2024-01-15T12:10:20;4.83;;;1.03;;
66189;SDS011;52992;52.084;5.412;2024-01-15T12:12:57;4.53;;;1.77;;
66189;SDS011;52992;52.084;5.412;2024-01-15T12:15:34;4.73;;;1.60;;
66189;SDS011;52992;52.084;5.412;2024-01-15T12:18:02;5.30;;;1.20;;
66189;SDS011;52992;52.084;5.412;2024-01-15T12:20:30;1.87;;;1.20;;
66189;SDS011;52992;52.084;5.412;2024-01-15T12:22:58;2.43;;;1.20;;
66189;SDS011;52992;52.084;5.412;2024-01-15T12:25:30;5.23;;;1.27;;
66189;SDS011;52992;52.084;5.412;2024-01-15T12:27:57;3.60;;;1.57;;
66189;SDS011;52992;52.084;5.412;2024-01-15T12:30:30;2.93;;;1.10;;
66189;SDS011;52992;52.084;5.412;2024-01-15T12:33:03;3.60;;;1.73;;
66189;SDS011;52992;52.084;5.412;2024-01-15T12:35:31;6.80;;;2.17;;
66189;SDS011;52992;52.084;5.412;2024-01-15T12:38:01;4.27;;;1.73;;
66189;SDS011;52992;52.084;5.412;2024-01-15T12:40:32;7.93;;;1.53;;
66189;SDS011;52992;52.084;5.412;2024-01-15T12:43:02;5.60;;;1.73;;
66189;SDS011;52992;52.084;5.412;2024-01-15T12:45:29;5.60;;;1.80;;
66189;SDS011;52992;52.084;5.412;2024-01-15T12:47:58;3.73;;;0.97;;
66189;SDS011;52992;52.084;5.412;2024-01-15T12:50:26;4.17;;;1.10;;
66189;SDS011;52992;52.084;5.412;2024-01-15T12:52:53;5.97;;;1.73;;
66189;SDS011;52992;52.084;5.412;2024-01-15T12:55:20;4.53;;;1.63;;
66189;SDS011;52992;52.084;5.412;2024-01-15T12:57:47;6.20;;;1.37;;
66189;SDS011;52992;52.084;5.412;2024-01-15T13:00:16;5.50;;;1.30;;
66189;SDS011;52992;52.084;5.412;2024-01-15T13:02:43;2.27;;;1.30;;
66189;SDS011;52992;52.084;5.412;2024-01-15T13:05:10;2.03;;;0.57;;
66189;SDS011;52992;52.084;5.412;2024-01-15T13:07:41;2.83;;;0.87;;
66189;SDS011;52992;52.084;5.412;2024-01-15T13:10:09;6.33;;;1.50;;
66189;SDS011;52992;52.084;5.412;2024-01-15T13:12:36;5.60;;;1.43;;
66189;SDS011;52992;52.084;5.412;2024-01-15T13:15:05;7.57;;;1.50;;
66189;SDS011;52992;52.084;5.412;2024-01-15T13:17:32;5.33;;;1.23;;
66189;SDS011;52992;52.084;5.412;2024-01-15T13:19:59;5.17;;;1.20;;
66189;SDS011;52992;52.084;5.412;2024-01-15T13:22:27;9.40;;;1.50;;
66189;SDS011;52992;52.084;5.412;2024-01-15T13:24:59;5.73;;;1.43;;
66189;SDS011;52992;52.084;5.412;2024-01-15T13:27:26;6.57;;;1.00;;
66189;SDS011;52992;52.084;5.412;2024-01-15T13:29:55;6.67;;;1.20;;
66189;SDS011;52992;52.084;5.412;2024-01-15T13:32:23;8.60;;;1.40;;
66189;SDS011;52992;52.084;5.412;2024-01-15T13:34:57;5.63;;;1.40;;
66189;SDS011;52992;52.084;5.412;2024-01-15T13:37:24;11.43;;;2.10;;
66189;SDS011;52992;52.084;5.412;2024-01-15T13:39:52;8.33;;;2.20;;
66189;SDS011;52992;52.084;5.412;2024-01-15T13:42:20;4.87;;;1.90;;
66189;SDS011;52992;52.084;5.412;2024-01-15T13:44:50;7.30;;;2.00;;
66189;SDS011;52992;52.084;5.412;2024-01-15T13:47:18;3.47;;;1.90;;
66189;SDS011;52992;52.084;5.412;2024-01-15T13:49:45;6.63;;;2.10;;
66189;SDS011;52992;52.084;5.412;2024-01-15T13:52:12;5.63;;;2.70;;
66189;SDS011;52992;52.084;5.412;2024-01-15T13:54:40;7.50;;;2.97;;
66189;SDS011;52992;52.084;5.412;2024-01-15T13:57:16;6.57;;;2.33;;
66189;SDS011;52992;52.084;5.412;2024-01-15T13:59:45;11.87;;;2.47;;
66189;SDS011;52992;52.084;5.412;2024-01-15T14:02:12;3.17;;;1.87;;
66189;SDS011;52992;52.084;5.412;2024-01-15T14:04:45;5.40;;;1.67;;
66189;SDS011;52992;52.084;5.412;2024-01-15T14:07:12;4.97;;;1.60;;
66189;SDS011;52992;52.084;5.412;2024-01-15T14:09:39;9.57;;;2.30;;
66189;SDS011;52992;52.084;5.412;2024-01-15T14:12:07;9.20;;;1.77;;
66189;SDS011;52992;52.084;5.412;2024-01-15T14:14:34;8.40;;;2.17;;
66189;SDS011;52992;52.084;5.412;2024-01-15T14:17:01;5.63;;;1.90;;
66189;SDS011;52992;52.084;5.412;2024-01-15T14:19:27;6.93;;;2.27;;
66189;SDS011;52992;52.084;5.412;2024-01-15T14:21:55;10.53;;;2.20;;
66189;SDS011;52992;52.084;5.412;2024-01-15T14:24:22;7.67;;;1.93;;
66189;SDS011;52992;52.084;5.412;2024-01-15T14:26:49;9.60;;;2.03;;
66189;SDS011;52992;52.084;5.412;2024-01-15T14:29:16;6.70;;;2.40;;
66189;SDS011;52992;52.084;5.412;2024-01-15T14:31:45;8.73;;;2.83;;
66189;SDS011;52992;52.084;5.412;2024-01-15T14:34:13;8.73;;;2.33;;
66189;SDS011;52992;52.084;5.412;2024-01-15T14:36:40;10.53;;;3.80;;
66189;SDS011;52992;52.084;5.412;2024-01-15T14:39:07;6.93;;;2.53;;
66189;SDS011;52992;52.084;5.412;2024-01-15T14:41:36;13.45;;;3.60;;
66189;SDS011;52992;52.084;5.412;2024-01-15T14:44:03;13.37;;;3.13;;
66189;SDS011;52992;52.084;5.412;2024-01-15T14:46:30;11.33;;;2.10;;
66189;SDS011;52992;52.084;5.412;2024-01-15T14:48:57;5.57;;;2.43;;
66189;SDS011;52992;52.084;5.412;2024-01-15T14:51:25;13.77;;;2.20;;
66189;SDS011;52992;52.084;5.412;2024-01-15T14:53:52;3.93;;;2.10;;
66189;SDS011;52992;52.084;5.412;2024-01-15T14:56:19;10.23;;;2.30;;
66189;SDS011;52992;52.084;5.412;2024-01-15T14:58:47;14.83;;;2.90;;